createdAt,value
2023-02-12T00:01:29.005Z,5.87
2023-02-12T00:03:58.048Z,5.92
2023-02-12T00:06:26.124Z,5.91
2023-02-12T00:08:58.234Z,5.91
2023-02-12T00:11:29.569Z,5.95
2023-02-12T00:13:58.482Z,5.97
2023-02-12T00:16:29.178Z,5.98
2023-02-12T00:18:59.709Z,5.92
2023-02-12T00:21:27.277Z,5.96
2023-02-12T00:23:55.674Z,5.92
2023-02-12T00:26:24.063Z,5.95
2023-02-12T00:28:52.500Z,5.96
2023-02-12T00:31:26.375Z,5.95
2023-02-12T00:33:54.338Z,5.96
2023-02-12T00:36:25.904Z,5.94
2023-02-12T00:38:56.081Z,6.00
2023-02-12T00:41:24.151Z,5.98
2023-02-12T00:43:52.080Z,5.96
2023-02-12T00:46:20.029Z,6.03
2023-02-12T00:48:47.841Z,6.03
2023-02-12T00:51:15.916Z,5.98
2023-02-12T00:53:43.631Z,6.05
2023-02-12T00:56:11.012Z,6.05
2023-02-12T00:58:38.517Z,6.07
2023-02-12T01:01:06.261Z,6.00
2023-02-12T01:03:33.887Z,6.08
2023-02-12T01:06:01.598Z,6.13
2023-02-12T01:08:28.997Z,6.01
2023-02-12T01:11:01.725Z,6.07
2023-02-12T01:13:30.828Z,6.14
2023-02-12T01:16:23.867Z,6.07
2023-02-12T01:18:55.974Z,5.99
2023-02-12T01:21:32.051Z,6.06
2023-02-12T01:23:59.789Z,6.12
2023-02-12T01:26:29.085Z,6.07
2023-02-12T01:29:07.981Z,6.07
2023-02-12T01:31:39.686Z,6.11
2023-02-12T01:34:08.657Z,6.18
2023-02-12T01:36:36.576Z,6.21
2023-02-12T01:39:05.838Z,6.24
2023-02-12T01:41:39.410Z,6.24
2023-02-12T01:44:06.791Z,6.21
2023-02-12T01:46:34.493Z,6.15
2023-02-12T01:49:05.546Z,6.18
2023-02-12T01:51:35.781Z,6.13
2023-02-12T01:54:08.508Z,6.10
2023-02-12T01:56:36.577Z,6.14
2023-02-12T01:59:04.112Z,6.13
2023-02-12T02:01:34.411Z,6.08
2023-02-12T02:04:12.182Z,6.04
2023-02-12T02:06:50.893Z,6.08
2023-02-12T02:09:20.560Z,6.18
2023-02-12T02:12:06.930Z,6.23
2023-02-12T02:14:34.671Z,6.19
2023-02-12T02:17:35.635Z,6.15
2023-02-12T02:20:08.877Z,6.14
2023-02-12T02:22:55.206Z,6.08
2023-02-12T02:25:43.840Z,6.14
2023-02-12T02:28:23.025Z,6.12
2023-02-12T02:31:12.767Z,6.11
2023-02-12T02:33:56.105Z,6.11
2023-02-12T02:36:50.936Z,6.15
2023-02-12T02:39:41.335Z,6.15
2023-02-12T02:42:27.826Z,6.19
2023-02-12T02:45:10.499Z,6.25
2023-02-12T02:47:46.004Z,6.14
2023-02-12T02:50:20.979Z,6.09
2023-02-12T02:53:08.895Z,6.06
2023-02-12T02:55:46.428Z,6.08
2023-02-12T02:58:21.504Z,6.06
2023-02-12T03:01:26.988Z,6.03
2023-02-12T03:04:26.578Z,6.07
2023-02-12T03:07:09.605Z,6.13
2023-02-12T03:09:47.416Z,6.19
2023-02-12T03:12:31.335Z,6.25
2023-02-12T03:15:15.280Z,6.24
2023-02-12T03:17:48.433Z,6.14
2023-02-12T03:20:24.872Z,6.26
2023-02-12T03:23:37.385Z,6.26
2023-02-12T03:26:13.191Z,6.23
2023-02-12T03:28:41.429Z,6.30
2023-02-12T03:31:42.972Z,6.28
2023-02-12T03:34:37.356Z,6.24
2023-02-12T03:37:33.771Z,6.24
2023-02-12T03:40:28.348Z,6.29
2023-02-12T03:43:17.452Z,6.21
2023-02-12T03:46:12.392Z,6.19
2023-02-12T03:48:55.866Z,6.20
2023-02-12T03:51:36.958Z,6.24
2023-02-12T03:54:07.889Z,6.28
2023-02-12T03:56:55.321Z,6.29
2023-02-12T03:59:25.749Z,6.31
2023-02-12T04:01:57.833Z,6.31
2023-02-12T04:04:26.922Z,6.31
2023-02-12T04:06:55.860Z,6.34
2023-02-12T04:09:27.677Z,6.37
2023-02-12T04:12:32.461Z,6.36
2023-02-12T04:15:46.691Z,6.39
2023-02-12T04:18:25.117Z,6.40
2023-02-12T04:21:13.878Z,6.41
2023-02-12T04:23:57.938Z,6.41
2023-02-12T04:26:42.713Z,6.37
2023-02-12T04:29:25.041Z,6.40
2023-02-12T04:32:15.968Z,6.37
2023-02-12T04:34:55.576Z,6.35
2023-02-12T04:37:53.956Z,6.38
2023-02-12T04:40:23.170Z,6.40
2023-02-12T04:42:53.634Z,6.47
2023-02-12T04:45:28.352Z,6.43
2023-02-12T04:47:56.265Z,6.45
2023-02-12T04:50:24.187Z,6.43
2023-02-12T04:52:53.090Z,6.38
2023-02-12T04:55:20.614Z,6.39
2023-02-12T04:57:48.057Z,6.39
2023-02-12T05:00:16.472Z,6.39
2023-02-12T05:02:43.922Z,6.40
2023-02-12T05:05:11.688Z,6.41
2023-02-12T05:07:38.985Z,6.39
2023-02-12T05:10:07.546Z,6.39
2023-02-12T05:12:34.916Z,6.42
2023-02-12T05:15:02.444Z,6.40
2023-02-12T05:17:29.793Z,6.39
2023-02-12T05:19:57.377Z,6.37
2023-02-12T05:22:24.657Z,6.37
2023-02-12T05:24:52.270Z,6.37
2023-02-12T05:27:19.556Z,6.38
2023-02-12T05:29:47.196Z,6.35
2023-02-12T05:32:14.622Z,6.40
2023-02-12T05:34:42.186Z,6.38
2023-02-12T05:37:09.512Z,6.34
2023-02-12T05:39:37.140Z,6.35
2023-02-12T05:42:04.549Z,6.26
2023-02-12T05:44:32.190Z,6.28
2023-02-12T05:46:59.450Z,6.25
2023-02-12T05:49:27.206Z,6.33
2023-02-12T05:51:54.489Z,6.31
2023-02-12T05:54:22.070Z,6.32
2023-02-12T05:56:49.406Z,6.37
2023-02-12T05:59:22.316Z,6.37
2023-02-12T06:01:52.525Z,6.37
2023-02-12T06:04:28.035Z,6.31
2023-02-12T06:06:56.669Z,6.37
2023-02-12T06:09:24.851Z,6.38
2023-02-12T06:11:52.417Z,6.38
2023-02-12T06:14:21.596Z,6.35
2023-02-12T06:16:51.577Z,6.37
2023-02-12T06:19:20.557Z,6.43
2023-02-12T06:21:48.308Z,6.49
2023-02-12T06:24:17.196Z,6.51
2023-02-12T06:26:45.573Z,6.45
2023-02-12T06:29:13.502Z,6.42
2023-02-12T06:31:41.547Z,6.45
2023-02-12T06:34:12.709Z,6.46
2023-02-12T06:36:44.727Z,6.46
2023-02-12T06:39:15.796Z,6.50
2023-02-12T06:41:44.126Z,6.43
2023-02-12T06:44:13.194Z,6.26
2023-02-12T06:46:40.559Z,6.26
2023-02-12T06:49:08.682Z,6.16
2023-02-12T06:51:38.430Z,6.11
2023-02-12T06:54:15.840Z,6.16
2023-02-12T06:56:44.026Z,6.09
2023-02-12T06:59:16.124Z,6.13
2023-02-12T07:01:43.720Z,6.14
2023-02-12T07:04:11.862Z,6.26
2023-02-12T07:06:39.570Z,6.29
2023-02-12T07:09:07.397Z,6.48
2023-02-12T07:11:38.441Z,6.55
2023-02-12T07:14:07.807Z,6.47
2023-02-12T07:16:35.246Z,6.38
2023-02-12T07:19:02.805Z,6.18
2023-02-12T07:21:30.880Z,6.17
2023-02-12T07:23:58.426Z,6.10
2023-02-12T07:26:25.685Z,6.18
2023-02-12T07:28:57.253Z,6.20
2023-02-12T07:31:24.786Z,6.21
2023-02-12T07:33:57.925Z,6.27
2023-02-12T07:36:29.225Z,6.26
2023-02-12T07:38:58.000Z,6.34
2023-02-12T07:41:31.513Z,6.52
2023-02-12T07:44:07.700Z,6.71
2023-02-12T07:46:38.187Z,7.03
2023-02-12T07:49:08.222Z,7.33
2023-02-12T07:51:37.092Z,7.70
2023-02-12T07:54:12.508Z,7.79
2023-02-12T07:56:42.691Z,7.83
2023-02-12T07:59:17.252Z,7.73
2023-02-12T08:01:49.907Z,8.04
2023-02-12T08:04:21.740Z,8.35
2023-02-12T08:06:53.664Z,8.33
2023-02-12T08:09:26.457Z,8.30
2023-02-12T08:11:54.330Z,8.17
2023-02-12T08:14:23.000Z,8.84
2023-02-12T08:16:52.023Z,9.60
2023-02-12T08:22:10.707Z,9.76
2023-02-12T08:24:38.316Z,9.77
2023-02-12T08:27:05.926Z,9.88
2023-02-12T08:29:33.448Z,9.85
2023-02-12T08:32:04.112Z,10.39
2023-02-12T08:34:35.016Z,10.99
2023-02-12T08:37:05.082Z,12.06
2023-02-12T08:39:32.650Z,12.51
2023-02-12T08:42:01.734Z,13.84
2023-02-12T08:44:29.836Z,15.44
2023-02-12T08:46:57.678Z,16.64
2023-02-12T08:49:29.607Z,17.79
2023-02-12T08:51:59.816Z,20.94
2023-02-12T08:54:30.004Z,20.16
2023-02-12T08:57:00.455Z,21.83
2023-02-12T08:59:29.107Z,22.13
2023-02-12T09:01:56.388Z,20.39
2023-02-12T09:04:27.551Z,22.20
2023-02-12T09:06:55.916Z,25.32
2023-02-12T09:09:24.076Z,24.66
2023-02-12T09:11:51.598Z,23.90
2023-02-12T09:14:24.482Z,22.16
2023-02-12T09:16:53.722Z,21.80
2023-02-12T09:19:21.837Z,23.08
2023-02-12T09:21:56.842Z,23.30
2023-02-12T09:24:27.822Z,26.12
2023-02-12T09:26:56.195Z,30.22
2023-02-12T09:29:24.140Z,32.29
2023-02-12T09:31:51.608Z,29.23
2023-02-12T09:34:19.222Z,32.90
2023-02-12T09:36:46.523Z,33.83
2023-02-12T09:39:14.089Z,36.38
2023-02-12T09:42:18.260Z,37.88
2023-02-12T09:45:22.881Z,39.76
2023-02-12T09:48:05.248Z,40.51
2023-02-12T09:50:42.556Z,41.34
2023-02-12T09:53:17.715Z,41.92
2023-02-12T09:55:46.305Z,42.90
2023-02-12T09:58:41.778Z,42.99
2023-02-12T10:01:15.597Z,42.55
2023-02-12T10:03:45.395Z,43.07
2023-02-12T10:06:24.825Z,44.43
2023-02-12T10:09:10.550Z,44.31
2023-02-12T10:12:24.841Z,41.90
2023-02-12T10:15:28.414Z,41.50
2023-02-12T10:18:07.428Z,38.74
2023-02-12T10:20:51.140Z,39.95
2023-02-12T10:23:52.495Z,43.50
2023-02-12T10:26:41.460Z,43.87
2023-02-12T10:29:39.857Z,42.69
2023-02-12T10:32:35.621Z,43.57
2023-02-12T10:35:16.362Z,46.19
2023-02-12T10:38:00.615Z,47.29
2023-02-12T10:40:34.223Z,47.62
2023-02-12T10:43:02.965Z,48.94
2023-02-12T10:45:35.877Z,49.28
2023-02-12T10:48:14.672Z,49.65
2023-02-12T10:51:09.552Z,48.48
2023-02-12T10:53:43.690Z,47.59
2023-02-12T10:56:25.720Z,46.62
2023-02-12T10:58:59.445Z,46.03
2023-02-12T11:01:33.344Z,46.91
2023-02-12T11:04:27.109Z,45.72
2023-02-12T11:07:09.945Z,44.93
2023-02-12T11:09:45.575Z,46.48
2023-02-12T11:12:48.149Z,39.95
2023-02-12T11:15:31.373Z,38.50
2023-02-12T11:18:05.136Z,39.30
2023-02-12T11:20:52.709Z,41.26
2023-02-12T11:23:32.676Z,42.43
2023-02-12T11:26:24.330Z,44.05
2023-02-12T11:28:59.712Z,43.52
2023-02-12T11:31:36.920Z,41.68
2023-02-12T11:34:19.781Z,37.53
2023-02-12T11:36:53.818Z,35.60
2023-02-12T11:39:36.665Z,35.84
2023-02-12T11:42:23.348Z,36.17
2023-02-12T11:44:57.569Z,34.44
2023-02-12T11:47:32.030Z,31.47
2023-02-12T11:50:15.753Z,32.07
2023-02-12T11:52:44.084Z,29.11
2023-02-12T11:55:35.431Z,30.12
2023-02-12T11:58:22.002Z,32.97
2023-02-12T12:01:30.693Z,34.65
2023-02-12T12:04:08.564Z,34.80
2023-02-12T12:06:51.730Z,31.45
2023-02-12T12:09:26.792Z,30.14
2023-02-12T12:12:09.210Z,27.51
2023-02-12T12:15:08.658Z,24.50
2023-02-12T12:18:15.602Z,23.21
2023-02-12T12:20:57.626Z,22.40
2023-02-12T12:23:52.138Z,20.81
2023-02-12T12:26:34.586Z,20.35
2023-02-12T12:29:48.431Z,19.47
2023-02-12T12:32:21.381Z,19.87
2023-02-12T12:34:49.167Z,19.50
2023-02-12T12:37:28.198Z,17.74
2023-02-12T12:40:22.340Z,16.87
2023-02-12T12:43:41.146Z,16.65
2023-02-12T12:46:44.539Z,15.94
2023-02-12T12:49:34.821Z,15.40
2023-02-12T12:52:20.455Z,14.81
2023-02-12T12:54:53.480Z,14.57
2023-02-12T12:58:13.304Z,14.14
2023-02-12T13:00:49.414Z,13.68
2023-02-12T13:03:43.104Z,13.28
2023-02-12T13:06:32.148Z,13.16
2023-02-12T13:09:15.696Z,12.72
2023-02-12T13:12:24.183Z,12.19
2023-02-12T13:15:06.431Z,11.96
2023-02-12T13:18:03.951Z,11.90
2023-02-12T13:20:46.735Z,12.03
2023-02-12T13:23:41.763Z,11.83
2023-02-12T13:26:58.184Z,12.18
2023-02-12T13:29:34.662Z,12.65
2023-02-12T13:33:11.667Z,13.37
2023-02-12T13:35:47.549Z,14.12
2023-02-12T13:38:24.022Z,15.14
2023-02-12T13:41:04.868Z,15.67
2023-02-12T13:43:56.740Z,15.81
2023-02-12T13:46:47.114Z,15.42
2023-02-12T13:49:41.542Z,15.98
2023-02-12T13:52:50.480Z,16.11
2023-02-12T13:55:51.456Z,18.37
2023-02-12T13:58:39.379Z,19.88
2023-02-12T14:01:47.456Z,20.61
2023-02-12T14:04:20.955Z,21.16
2023-02-12T14:07:01.313Z,20.83
2023-02-12T14:09:40.941Z,22.52
2023-02-12T14:12:34.471Z,22.67
2023-02-12T14:15:25.936Z,21.96
2023-02-12T14:18:07.204Z,21.67
2023-02-12T14:20:36.995Z,20.73
2023-02-12T14:23:27.978Z,19.68
2023-02-12T14:26:05.090Z,19.05
2023-02-12T14:28:52.992Z,18.72
2023-02-12T14:31:20.835Z,18.61
2023-02-12T14:34:16.717Z,17.86
2023-02-12T14:37:09.128Z,16.95
2023-02-12T14:39:36.736Z,15.90
2023-02-12T14:42:09.527Z,15.24
2023-02-12T14:44:45.394Z,14.69
2023-02-12T14:47:14.739Z,13.77
2023-02-12T14:49:55.796Z,13.07
2023-02-12T14:52:32.494Z,12.62
2023-02-12T14:55:18.935Z,12.29
2023-02-12T14:57:46.998Z,12.14
2023-02-12T15:00:17.425Z,12.12
2023-02-12T15:03:12.706Z,11.84
2023-02-12T15:05:49.925Z,11.82
2023-02-12T15:08:37.377Z,13.53
2023-02-12T15:11:49.175Z,14.45
2023-02-12T15:14:24.861Z,14.17
2023-02-12T15:17:16.689Z,14.03
2023-02-12T15:19:56.191Z,14.36
2023-02-12T15:22:33.189Z,14.20
2023-02-12T15:25:30.386Z,13.36
2023-02-12T15:28:02.885Z,13.29
2023-02-12T15:30:35.683Z,13.16
2023-02-12T15:33:07.840Z,12.58
2023-02-12T15:35:40.011Z,12.07
2023-02-12T15:38:08.507Z,11.72
2023-02-12T15:40:35.926Z,11.42
2023-02-12T15:43:07.618Z,11.09
2023-02-12T15:45:36.991Z,10.78
2023-02-12T15:48:15.979Z,10.54
2023-02-12T15:51:16.463Z,10.25
2023-02-12T15:53:45.008Z,10.08
2023-02-12T15:56:20.646Z,9.89
2023-02-12T15:58:58.190Z,9.71
2023-02-12T16:01:30.211Z,9.54
2023-02-12T16:04:05.374Z,9.35
2023-02-12T16:06:36.882Z,9.18
2023-02-12T16:09:17.548Z,9.00
2023-02-12T16:11:48.543Z,8.80
2023-02-12T16:14:54.440Z,8.67
2023-02-12T16:17:34.749Z,8.57
2023-02-12T16:20:25.713Z,8.44
2023-02-12T16:22:54.465Z,8.39
2023-02-12T16:25:35.647Z,8.28
2023-02-12T16:28:22.593Z,8.16
2023-02-12T16:30:53.303Z,8.04
2023-02-12T16:33:45.041Z,7.87
2023-02-12T16:36:22.619Z,7.74
2023-02-12T16:38:57.011Z,7.69
2023-02-12T16:41:31.290Z,7.57
2023-02-12T16:44:01.300Z,7.50
2023-02-12T16:46:32.817Z,7.33
2023-02-12T16:49:02.564Z,7.12
2023-02-12T16:51:35.315Z,6.73
2023-02-12T16:54:26.190Z,6.50
2023-02-12T16:56:53.890Z,6.24
2023-02-12T16:59:21.260Z,6.15
2023-02-12T17:02:12.767Z,5.86
2023-02-12T17:04:41.155Z,5.94
2023-02-12T17:07:31.136Z,6.04
2023-02-12T17:09:58.484Z,6.14
2023-02-12T17:12:27.403Z,6.20
2023-02-12T17:14:55.948Z,6.15
2023-02-12T17:17:23.755Z,6.07
2023-02-12T17:19:53.268Z,6.05
2023-02-12T17:22:26.368Z,5.92
2023-02-12T17:24:54.874Z,5.82
2023-02-12T17:27:22.575Z,5.86
2023-02-12T17:29:49.934Z,5.89
2023-02-12T17:32:17.550Z,5.76
2023-02-12T17:34:48.575Z,5.72
2023-02-12T17:37:18.290Z,5.70
2023-02-12T17:39:45.730Z,5.70
2023-02-12T17:42:13.478Z,5.60
2023-02-12T17:44:41.668Z,5.57
2023-02-12T17:47:09.415Z,5.56
2023-02-12T17:49:38.716Z,5.48
2023-02-12T17:52:07.480Z,5.47
2023-02-12T17:54:35.056Z,5.38
2023-02-12T17:57:03.381Z,5.32
2023-02-12T17:59:30.902Z,5.28
2023-02-12T18:01:59.241Z,5.22
2023-02-12T18:04:26.645Z,5.36
2023-02-12T18:06:56.209Z,5.34
2023-02-12T18:09:23.573Z,5.31
2023-02-12T18:11:51.202Z,5.27
2023-02-12T18:14:18.506Z,5.22
2023-02-12T18:16:46.391Z,5.20
2023-02-12T18:19:13.849Z,5.21
2023-02-12T18:21:42.041Z,5.20
2023-02-12T18:24:09.315Z,5.16
2023-02-12T18:26:37.104Z,5.19
2023-02-12T18:29:04.517Z,5.16
2023-02-12T18:31:32.426Z,5.20
2023-02-12T18:33:59.792Z,5.18
2023-02-12T18:36:27.651Z,5.21
2023-02-12T18:38:55.006Z,5.16
2023-02-12T18:41:26.905Z,5.11
2023-02-12T18:43:54.927Z,5.17
2023-02-12T18:46:27.824Z,5.11
2023-02-12T18:48:55.946Z,5.10
2023-02-12T18:51:27.916Z,5.11
2023-02-12T18:54:02.844Z,5.05
2023-02-12T18:56:34.196Z,4.99
2023-02-12T18:59:05.498Z,4.98
2023-02-12T19:01:35.688Z,4.98
2023-02-12T19:04:06.288Z,4.91
2023-02-12T19:06:42.640Z,4.81
2023-02-12T19:09:13.429Z,4.82
2023-02-12T19:11:41.041Z,4.81
2023-02-12T19:14:08.380Z,4.78
2023-02-12T19:16:37.433Z,4.70
2023-02-12T19:19:04.821Z,4.71
2023-02-12T19:21:32.559Z,4.70
2023-02-12T19:24:02.818Z,4.73
2023-02-12T19:26:32.587Z,4.73
2023-02-12T19:29:01.196Z,4.71
2023-02-12T19:31:36.766Z,4.64
2023-02-12T19:34:17.091Z,4.63
2023-02-12T19:36:46.306Z,4.61
2023-02-12T19:39:16.946Z,4.66
2023-02-12T19:41:47.006Z,4.63
2023-02-12T19:44:22.041Z,4.64
2023-02-12T19:46:50.686Z,4.57
2023-02-12T19:49:27.589Z,4.42
2023-02-12T19:51:55.667Z,4.41
2023-02-12T19:54:24.248Z,4.32
2023-02-12T19:56:55.400Z,4.35
2023-02-12T19:59:25.317Z,4.31
2023-02-12T20:01:53.926Z,4.34
2023-02-12T20:04:24.432Z,4.32
2023-02-12T20:06:52.578Z,4.38
2023-02-12T20:09:22.532Z,4.44
2023-02-12T20:11:50.626Z,4.46
2023-02-12T20:14:20.958Z,4.43
2023-02-12T20:16:49.996Z,4.43
2023-02-12T20:19:23.802Z,4.46
2023-02-12T20:21:55.378Z,4.48
2023-02-12T20:24:26.563Z,4.22
2023-02-12T20:26:55.036Z,4.31
2023-02-12T20:29:23.265Z,4.29
2023-02-12T20:31:51.262Z,4.24
2023-02-12T20:34:20.676Z,4.23
2023-02-12T20:36:48.904Z,4.20
2023-02-12T20:39:20.080Z,4.21
2023-02-12T20:41:49.066Z,4.20
2023-02-12T20:44:21.483Z,4.32
2023-02-12T20:46:55.896Z,4.40
2023-02-12T20:49:25.598Z,4.41
2023-02-12T20:51:53.214Z,4.44
2023-02-12T20:54:21.267Z,4.47
2023-02-12T20:56:50.777Z,4.53
2023-02-12T20:59:20.351Z,4.55
2023-02-12T21:01:48.109Z,4.56
2023-02-12T21:04:19.291Z,4.65
2023-02-12T21:06:48.599Z,4.66
2023-02-12T21:09:16.502Z,4.69
2023-02-12T21:11:45.928Z,4.81
2023-02-12T21:14:23.869Z,4.89
2023-02-12T21:16:54.445Z,4.92
2023-02-12T21:19:23.333Z,5.01
2023-02-12T21:21:50.961Z,5.01
2023-02-12T21:24:23.172Z,5.01
2023-02-12T21:26:52.553Z,4.99
2023-02-12T21:29:21.257Z,4.98
2023-02-12T21:31:51.363Z,4.90
2023-02-12T21:34:23.209Z,4.93
2023-02-12T21:36:55.348Z,4.92
2023-02-12T21:39:28.618Z,4.93
2023-02-12T21:42:03.057Z,4.91
2023-02-12T21:44:35.362Z,4.93
2023-02-12T21:47:03.195Z,4.90
2023-02-12T21:49:30.887Z,4.95
2023-02-12T21:52:02.425Z,4.99
2023-02-12T21:54:30.870Z,5.00
2023-02-12T21:56:59.498Z,4.98
2023-02-12T21:59:30.717Z,5.04
2023-02-12T22:02:00.767Z,5.02
2023-02-12T22:04:29.337Z,5.05
2023-02-12T22:06:58.122Z,5.05
2023-02-12T22:09:26.179Z,5.13
2023-02-12T22:11:53.605Z,5.16
2023-02-12T22:14:22.606Z,5.15
2023-02-12T22:16:50.482Z,5.17
2023-02-12T22:19:18.322Z,5.19
2023-02-12T22:21:45.697Z,5.23
2023-02-12T22:24:16.438Z,5.22
2023-02-12T22:26:45.028Z,5.24
2023-02-12T22:29:15.839Z,5.12
2023-02-12T22:31:46.424Z,4.91
2023-02-12T22:34:17.948Z,5.02
2023-02-12T22:36:45.764Z,5.04
2023-02-12T22:39:14.969Z,4.92
2023-02-12T22:41:42.700Z,5.05
2023-02-12T22:44:13.183Z,5.10
2023-02-12T22:46:43.092Z,5.15
2023-02-12T22:49:10.923Z,5.02
2023-02-12T22:51:39.795Z,5.10
2023-02-12T22:54:12.258Z,5.15
2023-02-12T22:56:39.666Z,5.09
2023-02-12T22:59:07.590Z,5.12
2023-02-12T23:01:34.932Z,5.18
2023-02-12T23:04:02.614Z,5.16
2023-02-12T23:06:31.931Z,5.17
2023-02-12T23:09:03.890Z,5.10
2023-02-12T23:11:33.400Z,5.09
2023-02-12T23:14:01.341Z,4.95
2023-02-12T23:16:29.357Z,4.99
2023-02-12T23:18:59.318Z,5.05
2023-02-12T23:21:28.945Z,5.01
2023-02-12T23:23:59.265Z,5.07
2023-02-12T23:26:28.094Z,5.07
2023-02-12T23:28:56.993Z,4.88
2023-02-12T23:31:25.432Z,4.87
2023-02-12T23:33:53.097Z,4.97
2023-02-12T23:36:20.541Z,5.00
2023-02-12T23:38:48.116Z,5.09
2023-02-12T23:41:15.363Z,4.70
2023-02-12T23:43:42.955Z,4.80
2023-02-12T23:46:10.366Z,4.77
2023-02-12T23:48:38.015Z,4.71
2023-02-12T23:51:05.575Z,4.74
2023-02-12T23:53:33.318Z,4.62
2023-02-12T23:56:00.601Z,4.58
2023-02-12T23:58:28.217Z,4.82
